Latest Weather Observations for Coen Airport

IDQ60801

Issued at 10:05 pm EST Wednesday 22 October 2014 (issued every 30 minutes, with the page automatically refreshed every 10 minutes)

About weather observations | Map of weather stations | Latest weather observations for QLD | Other Formats
Station Details ID: 027073 Name: COEN AIRPORT Lat: -13.76 Lon: 143.12 Height: 159.3 m
Data from the previous 72 hours. | See also: Recent months at Coen Airport
Date/Time
EST
Temp
°C
App
Temp
°C
Dew
Point
Rel
Hum
%
Delta-T
°C
Wind Press
QNH
hPa
Press
MSL
hPa
Rain
since 9 am
mm
Dir
 
Spd
km/h
Gust
km/h
Spd
kts
Gust
kts
22/10:00pm 23.8 23.3 16.8 65 4.3 ENE 15 26 8 14 1016.1 - 0.0
22/09:30pm 23.5 23.0 16.8 66 4.1 NNE 15 24 8 13 1016.3 - 0.0
22/09:00pm 23.6 22.8 17.1 67 4.0 NE 17 26 9 14 1016.1 1015.3 0.0
22/08:30pm 23.7 23.7 17.2 67 4.0 ENE 13 20 7 11 1015.8 - 0.0
22/08:00pm 23.7 23.3 17.2 67 4.0 ENE 15 26 8 14 1015.6 - 0.0
22/07:30pm 23.9 22.8 17.2 66 4.2 ENE 19 28 10 15 1015.1 - 0.0
22/07:00pm 24.1 22.7 16.9 64 4.5 ENE 20 32 11 17 1014.9 - 0.0
22/06:30pm 24.5 23.7 16.2 60 5.1 ENE 15 24 8 13 1014.5 - 0.0
22/06:00pm 25.5 24.1 16.6 58 5.5 ENE 19 28 10 15 1013.9 1013.1 0.0
22/05:30pm 26.7 25.1 16.6 54 6.3 NE 20 35 11 19 1013.7 - 0.0
22/05:00pm 27.8 25.9 16.7 50 7.0 NE 22 32 12 17 1013.4 - 0.0
22/04:30pm 28.4 26.2 17.0 50 7.2 NE 24 39 13 21 1013.2 - 0.0
22/04:00pm 28.8 26.0 16.4 47 7.8 ENE 26 39 14 21 1013.2 - 0.0
22/03:30pm 29.1 26.7 16.3 46 8.0 NE 24 37 13 20 1013.4 - 0.0
22/03:00pm 29.4 26.4 16.9 47 7.9 NE 28 35 15 19 1013.5 1012.5 0.0
22/02:30pm 30.5 27.6 16.1 41 9.0 NE 26 37 14 20 1013.7 - 0.0
22/02:00pm 29.5 27.3 16.0 44 8.4 NE 22 37 12 20 1013.9 - 0.0
22/01:51pm 29.6 26.1 16.4 45 8.3 NE 30 48 16 26 1014.0 - 0.0
22/01:30pm 30.1 26.4 15.0 40 9.3 NNE 28 39 15 21 1014.1 - 0.0
22/01:00pm 30.4 28.1 15.7 41 9.2 NE 22 37 12 20 1014.6 - 0.0
22/12:30pm 30.6 28.3 16.6 43 8.8 NE 24 39 13 21 1015.0 - 0.0
22/12:00pm 29.6 27.7 16.8 46 8.1 NNE 22 35 12 19 1015.4 1014.4 0.0
22/11:30am 30.6 28.5 16.2 41 9.0 NE 22 35 12 19 1015.7 - 0.0
22/11:00am 30.3 28.2 16.3 42 8.8 NE 22 39 12 21 1016.1 - 0.0
22/10:30am 29.9 28.2 16.3 43 8.5 NE 20 32 11 17 1016.4 - 0.0
22/10:00am 28.3 26.5 15.9 47 7.7 ENE 20 35 11 19 1016.6 - 0.0
22/09:30am 29.0 28.7 16.5 46 7.8 ENE 13 24 7 13 1016.7 - 0.0
22/09:00am 28.7 29.5 17.2 49 7.3 E 9 15 5 8 1016.8 1016.0 0.0
22/08:30am 27.7 27.8 17.5 53 6.5 ESE 13 20 7 11 1016.8 - 0.0
22/08:00am 26.4 27.5 18.0 60 5.3 ESE 9 20 5 11 1016.7 - 0.0
22/07:30am 24.2 26.7 18.2 69 3.8 WNW 2 7 1 4 1016.4 - 0.0
22/07:00am 21.9 24.8 18.3 80 2.3 CALM 0 7 0 4 1016.0 - 0.0
22/06:30am 20.0 22.0 17.0 83 1.8 NNE 2 7 1 4 1015.8 - 0.0
22/06:00am 20.9 23.1 17.5 81 2.1 NW 2 0 1 0 1015.5 1014.6 0.0
22/05:30am 20.7 23.2 17.3 81 2.1 CALM 0 0 0 0 1015.2 - 0.0
22/05:00am 21.3 23.8 17.3 78 2.5 CALM 0 0 0 0 1014.9 - 0.0
22/04:30am 21.4 24.0 17.6 79 2.4 CALM 0 0 0 0 1014.8 - 0.0
22/04:00am 20.5 21.6 16.5 78 2.4 NNW 6 9 3 5 1014.7 - 0.0
22/03:30am 22.7 23.7 17.8 74 3.1 ESE 9 15 5 8 1014.5 - 0.0
22/03:00am 22.8 23.8 17.7 73 3.2 E 9 15 5 8 1014.5 1013.6 0.0
22/02:30am 22.7 23.8 18.0 75 3.0 ESE 9 20 5 11 1014.6 - 0.0
22/02:00am 22.4 23.2 17.3 73 3.2 WSW 9 11 5 6 1014.8 - 0.0
22/01:30am 22.1 23.2 17.0 73 3.1 W 7 13 4 7 1015.1 - 0.0
22/01:00am 23.2 24.1 16.5 66 4.1 ENE 7 15 4 8 1015.5 - 0.0
22/12:30am 23.7 25.9 17.4 68 3.9 E 2 7 1 4 1015.7 - 0.0
22/12:00am 24.0 24.6 17.7 68 4.0 E 11 20 6 11 1016.0 1015.1 0.0
 
Date/Time
EST
Temp
°C
App
Temp
°C
Dew
Point
Rel
Hum
%
Delta-T
°C
Wind Press
QNH
hPa
Press
MSL
hPa
Rain
since 9 am
mm
Dir
 
Spd
km/h
Gust
km/h
Spd
kts
Gust
kts
21/11:30pm 24.2 24.2 17.2 65 4.4 E 13 32 7 17 1016.4 - 0.0
21/11:00pm 23.9 24.2 16.9 65 4.3 E 11 20 6 11 1016.6 - 0.0
21/10:30pm 24.1 24.6 17.4 66 4.2 E 11 22 6 12 1016.7 - 0.0
21/10:00pm 24.1 24.2 16.6 63 4.6 E 11 20 6 11 1016.6 - 0.0
21/09:30pm 24.1 24.4 16.1 61 4.9 E 9 17 5 9 1016.4 - 0.0
21/09:00pm 24.2 24.2 16.2 61 4.9 E 11 17 6 9 1016.2 1015.3 0.0
21/08:30pm 24.3 23.4 16.8 63 4.6 E 17 28 9 15 1015.9 - 0.0
21/08:00pm 24.3 23.9 17.1 64 4.5 E 15 26 8 14 1016.0 - 0.0
21/07:30pm 24.5 23.7 17.0 63 4.7 ENE 17 30 9 16 1015.7 - 0.0
21/07:00pm 24.7 24.0 17.4 64 4.6 ENE 17 33 9 18 1015.4 - 0.0
21/06:30pm 25.1 23.4 17.3 62 4.9 NE 22 35 12 19 1014.9 - 0.0
21/06:00pm 26.1 25.0 17.2 58 5.6 NE 19 30 10 16 1014.6 1013.7 0.0
21/05:30pm 27.1 24.7 16.4 52 6.7 NE 24 43 13 23 1014.3 - 0.0
21/05:00pm 28.2 25.6 15.8 47 7.7 NE 24 39 13 21 1013.8 - 0.0
21/04:30pm 29.3 26.4 16.1 44 8.2 NE 26 41 14 22 1013.5 - 0.0
21/04:00pm 29.9 27.2 15.6 42 8.9 NE 24 37 13 20 1013.5 - 0.0
21/03:30pm 30.2 27.6 15.9 42 8.9 NE 24 37 13 20 1013.6 - 0.0
21/03:00pm 30.1 27.4 14.6 39 9.5 NE 22 35 12 19 1013.7 1012.7 0.0
21/02:30pm 31.7 29.8 15.2 36 10.2 NE 19 30 10 16 1013.7 - 0.0
21/02:00pm 30.5 27.4 14.6 38 9.7 NE 24 39 13 21 1014.0 - 0.0
21/01:30pm 31.8 29.2 14.9 36 10.5 NE 22 35 12 19 1014.4 - 0.0
21/01:00pm 31.7 28.8 15.2 36 10.2 NE 24 39 13 21 1014.8 - 0.0
21/12:30pm 30.7 27.7 14.8 38 9.8 NE 24 37 13 20 1015.4 - 0.0
21/12:22pm 30.8 27.2 15.2 38 9.7 NE 28 46 15 25 1015.4 - 0.0
21/12:00pm 30.7 29.4 14.8 38 9.8 NE 15 32 8 17 1015.9 1014.9 0.0
21/11:30am 30.2 28.9 15.9 42 8.9 E 17 30 9 16 1016.2 - 0.0
21/11:00am 29.9 29.3 15.6 42 8.9 NE 13 26 7 14 1016.6 - 0.0
21/10:30am 30.8 30.0 17.1 43 8.7 ESE 17 33 9 18 1016.6 - 0.0
21/10:00am 29.2 27.6 16.0 44 8.2 ESE 19 30 10 16 1017.1 - 0.0
21/09:30am 27.1 26.1 15.5 49 7.1 ESE 15 24 8 13 1017.3 - 0.0
21/09:00am 27.5 25.9 16.5 51 6.9 SE 20 30 11 16 1017.3 1016.5 0.0
21/08:30am 26.8 25.5 16.7 54 6.3 SE 19 28 10 15 1017.2 - 0.0
21/08:00am 25.3 25.1 16.7 59 5.3 SE 13 20 7 11 1017.0 - 0.0
21/07:30am 23.8 23.4 16.3 63 4.6 SSE 13 17 7 9 1016.6 - 0.0
21/07:00am 23.3 22.9 17.1 68 3.8 S 15 19 8 10 1016.3 - 0.0
21/06:30am 22.0 21.7 17.4 75 2.9 SSE 15 20 8 11 1015.9 - 0.0
21/06:00am 21.3 22.4 17.9 81 2.1 SSE 9 11 5 6 1015.7 1014.8 0.0
21/05:30am 19.6 21.0 16.4 82 1.9 N 4 7 2 4 1015.3 - 0.0
21/05:00am 20.1 21.2 16.7 81 2.1 SSW 6 9 3 5 1015.1 - 0.0
21/04:30am 20.2 22.5 16.8 81 2.1 CALM 0 0 0 0 1014.9 - 0.0
21/04:00am 20.1 22.5 16.9 82 2.0 CALM 0 0 0 0 1014.9 - 0.0
21/03:30am 20.5 21.6 16.7 79 2.3 W 6 13 3 7 1014.6 - 0.0
21/03:00am 20.1 21.8 16.3 79 2.3 N 2 9 1 5 1014.6 1013.8 0.0
21/02:30am 20.0 20.7 16.0 78 2.4 WNW 7 9 4 5 1014.6 - 0.0
21/02:00am 20.5 21.4 16.1 76 2.7 WSW 6 13 3 7 1014.7 - 0.0
21/01:30am 20.1 21.1 15.3 74 2.9 N 4 7 2 4 1014.9 - 0.0
21/01:00am 21.1 22.2 15.6 71 3.3 W 4 11 2 6 1015.2 - 0.0
21/12:30am 22.8 23.6 15.9 65 4.2 E 6 15 3 8 1015.3 - 0.0
21/12:00am 23.5 24.4 16.5 65 4.3 NNW 7 15 4 8 1015.7 1014.8 0.0
 
Date/Time
EST
Temp
°C
App
Temp
°C
Dew
Point
Rel
Hum
%
Delta-T
°C
Wind Press
QNH
hPa
Press
MSL
hPa
Rain
since 9 am
mm
Dir
 
Spd
km/h
Gust
km/h
Spd
kts
Gust
kts
20/11:30pm 23.2 24.6 16.3 65 4.2 WNW 4 9 2 5 1016.0 - 0.0
20/11:00pm 23.6 24.0 16.4 64 4.4 NE 9 28 5 15 1016.1 - 0.0
20/10:30pm 23.8 24.9 17.1 66 4.2 NE 7 17 4 9 1016.2 - 0.0
20/10:00pm 24.1 23.7 16.1 61 4.9 E 13 22 7 12 1016.1 - 0.0
20/09:30pm 24.1 22.9 16.1 61 4.9 E 17 28 9 15 1015.7 - 0.0
20/09:00pm 24.2 23.5 16.5 62 4.7 E 15 30 8 16 1015.6 1014.7 0.0
20/08:30pm 24.5 24.1 17.2 63 4.6 E 15 24 8 13 1015.4 - 0.0
20/08:00pm 24.4 25.2 17.4 65 4.4 E 9 26 5 14 1015.1 - 0.0
20/07:30pm 24.5 24.6 17.5 65 4.4 E 13 24 7 13 1014.7 - 0.0
20/07:00pm 24.6 25.0 17.3 64 4.6 NE 11 22 6 12 1014.6 - 0.0
20/06:30pm 25.2 24.6 16.6 59 5.3 ENE 15 30 8 16 1014.4 - 0.0
20/06:00pm 25.9 24.9 16.5 56 5.8 ENE 17 24 9 13 1014.2 1013.3 0.0
20/05:30pm 27.1 25.3 16.1 51 6.8 ENE 20 32 11 17 1013.8 - 0.0
20/05:00pm 28.0 25.4 16.0 48 7.4 NE 24 33 13 18 1013.6 - 0.0
20/04:30pm 29.5 27.3 16.0 44 8.4 ENE 22 39 12 21 1013.3 - 0.0
20/04:00pm 29.6 28.1 16.4 45 8.3 ENE 19 32 10 17 1013.2 - 0.0
20/03:30pm 29.0 27.3 16.2 46 8.0 ENE 20 33 11 18 1013.4 - 0.0
20/03:00pm 28.8 25.5 16.0 45 8.0 NE 28 30 15 16 1013.4 1012.5 0.0
20/02:30pm 30.6 28.9 17.3 45 8.5 E 22 33 12 18 1013.4 - 0.0
20/02:00pm 29.7 27.6 16.1 43 8.5 ENE 22 37 12 20 1013.7 - 0.0
20/01:30pm 30.2 28.3 16.6 44 8.6 ENE 22 33 12 18 1014.1 - 0.0
20/01:00pm 31.3 29.8 16.8 41 9.2 ENE 20 35 11 19 1014.5 - 0.0
20/12:30pm 31.7 30.5 17.6 43 9.1 ENE 20 35 11 19 1014.9 - 0.0
20/12:00pm 30.6 29.3 17.3 45 8.5 ESE 20 28 11 15 1015.4 1014.4 0.0
20/11:30am 29.5 28.7 17.0 47 7.9 E 17 30 9 16 1015.8 - 0.0
20/11:00am 29.6 28.1 16.4 45 8.3 E 19 30 10 16 1016.2 - 0.0
20/10:30am 29.5 28.0 16.7 46 8.1 ENE 20 28 11 15 1016.4 - 0.0
20/10:00am 27.8 26.2 16.1 49 7.3 E 19 32 10 17 1016.9 - 0.0
20/09:30am 27.9 26.5 16.5 50 7.1 ENE 19 32 10 17 1017.0 - 0.0
20/09:00am 27.9 26.9 16.5 50 7.1 E 17 32 9 17 1017.2 1016.4 0.0
20/08:30am 26.3 25.2 15.4 51 6.7 SE 15 20 8 11 1017.2 - 0.0
20/08:00am 26.0 25.9 16.0 54 6.2 ESE 11 19 6 10 1017.0 - 0.0
20/07:30am 24.6 24.7 16.6 61 4.9 SSW 11 17 6 9 1016.8 - 0.0
20/07:00am 22.5 23.4 16.5 69 3.7 SW 7 9 4 5 1016.4 - 0.0
20/06:30am 22.0 22.9 16.7 72 3.3 W 7 13 4 7 1015.8 - 0.0
20/06:00am 21.2 21.6 16.2 73 3.0 W 9 11 5 6 1015.6 1014.8 0.0
20/05:30am 21.3 21.8 15.6 70 3.4 WSW 7 11 4 6 1015.3 - 0.0
20/05:00am 22.3 22.6 16.1 68 3.8 S 9 22 5 12 1015.1 - 0.0
20/04:30am 21.8 23.8 16.1 70 3.5 CALM 0 13 0 7 1014.9 - 0.0
20/04:00am 22.7 21.2 16.3 67 3.9 ESE 19 32 10 17 1014.7 - 0.0
20/03:30am 22.7 22.0 16.5 68 3.8 E 15 28 8 15 1014.6 - 0.0
20/03:00am 22.6 23.5 16.6 69 3.7 ESE 7 11 4 6 1015.0 1014.1 0.0
20/02:30am 23.0 22.5 16.8 68 3.8 E 15 26 8 14 1015.1 - 0.0
20/02:00am 22.9 22.9 17.1 70 3.6 E 13 24 7 13 1015.3 - 0.0
20/01:30am 22.9 23.1 16.7 68 3.8 ESE 11 19 6 10 1015.6 - 0.0
20/01:00am 23.4 22.4 16.7 66 4.1 E 17 28 9 15 1016.0 - 0.0
20/12:30am 23.6 22.6 16.6 65 4.3 E 17 30 9 16 1016.2 - 0.0
20/12:00am 23.9 22.6 16.9 65 4.3 E 19 30 10 16 1016.7 1015.7 0.0
 
Date/Time
EST
Temp
°C
App
Temp
°C
Dew
Point
Rel
Hum
%
Delta-T
°C
Wind Press
QNH
hPa
Press
MSL
hPa
Rain
since 9 am
mm
Dir
 
Spd
km/h
Gust
km/h
Spd
kts
Gust
kts
19/11:30pm 23.6 22.7 16.9 66 4.1 E 17 28 9 15 1017.0 - 0.0
19/11:00pm 23.6 23.1 16.9 66 4.1 E 15 20 8 11 1017.2 - 0.0
19/10:30pm 23.9 23.0 16.9 65 4.3 E 17 26 9 14 1017.5 - 0.0

Other Formats:

Comma delimited format used in spreadsheet applications
http://www.bom.gov.au/fwo/IDQ60801/IDQ60801.94183.axf

JavaScript Object Notation format (JSON) in row-major order
http://www.bom.gov.au/fwo/IDQ60801/IDQ60801.94183.json